PORT of CHALKI

Країна: Greece Країна: Greece (GR)
Широта / Довгота: 36.221375° / 27.615645° Показати на карті Показати на карті
Місцевий час:  UTC +3
UN/LOCODE: GRHAL
Очікувані прибуття: 1

Суден у порту


Записів не знайдено

Останні прибуття і відбуття


Ім'я судна
Прибуття (UTC)
Прибуття (LT)
Відправлення (UTC)
Відправлення (LT)
Vessel Type: Швидкісне судно  DODEKANISOS EXPRESS 2014-10-07 07:18:00 2014-10-07 10:18:00 2014-10-21 11:53:00 2014-10-21 14:53:00
Vessel Type: Яхти та інші  AISLADO 2014-10-14 16:06:00 2014-10-14 19:06:00 2014-10-21 07:33:00 2014-10-21 10:33:00
Vessel Type: Пасажирські судна  PREVELIS 2014-10-19 02:09:00 2014-10-19 05:09:00 2014-10-19 02:23:00 2014-10-19 05:23:00
Vessel Type: Пасажирські судна  PREVELIS 2014-10-18 19:27:00 2014-10-18 22:27:00 2014-10-18 19:41:00 2014-10-18 22:41:00
Vessel Type: Яхти та інші  VIVANT 2014-10-15 10:40:00 2014-10-15 13:40:00 2014-10-16 07:08:00 2014-10-16 10:08:00
Vessel Type: Пасажирські судна  PREVELIS 2014-10-16 04:00:00 2014-10-16 07:00:00 2014-10-16 04:14:00 2014-10-16 07:14:00
Vessel Type: Пасажирські судна  PREVELIS 2014-10-15 15:42:00 2014-10-15 18:42:00 2014-10-15 15:56:00 2014-10-15 18:56:00
BB2 2014-10-14 14:30:00 2014-10-14 17:30:00 2014-10-15 05:59:00 2014-10-15 08:59:00
Vessel Type: Яхти та інші  MEHMET USTA 2014-10-12 07:45:00 2014-10-12 10:45:00 2014-10-14 03:08:00 2014-10-14 06:08:00
Vessel Type: Яхти та інші  ATID 2014-10-12 11:48:00 2014-10-12 14:48:00 2014-10-12 23:13:00 2014-10-13 02:13:00

Очікувані прибуття


Ім'я судна
Scheduled Arrival (UTC)
Заплановане прибуття (місцевий час)
Очікуване прибуття (UTC)
Очікуване прибуття (місцевий час)
Vessel Type: Яхти та інші  THETIS 2014-10-21 17:00:00 2014-10-21 20:00:00

Wind Forecast


    
Час (UTC)
Швидкість
Direction
Temperature
2014-10-22 09:00:00 16 knots 170° 21°C
2014-10-22 12:00:00 17 knots 169° 21°C
2014-10-22 15:00:00 19 knots 156° 21°C
2014-10-22 18:00:00 23 knots 154° 21°C
2014-10-22 21:00:00 26 knots 161° 22°C
2014-10-23 00:00:00 25 knots 179° 22°C
2014-10-23 03:00:00 25 knots 181° 23°C
2014-10-23 06:00:00 29 knots 167° 23°C
2014-10-23 09:00:00 29 knots 193° 23°C
2014-10-23 12:00:00 24 knots 209° 23°C
2014-10-23 15:00:00 22 knots 221° 23°C
2014-10-23 18:00:00 22 knots 236° 22°C
2014-10-23 21:00:00 18 knots 257° 21°C
2014-10-24 00:00:00 14 knots 268° 21°C
2014-10-24 03:00:00 15 knots 264° 20°C
2014-10-24 06:00:00 14 knots 244° 20°C
2014-10-24 09:00:00 20 knots 210° 21°C